Terminal Aerodrome Forecast
Issued by NWS North Platte, NE

Home | Current Version | Previous Version | Graphics & Text | Print | Product List | Glossary On
Versions: 1 2 3 4 5 6 7 8 9 10 11 12 13 14 15 16 17 18 19 20
805
FTUS43 KLBF 272202 AAB
TAFVTN
TAF AMD
KVTN 272202Z 2722/2818 06010G16KT P6SM -TSRA BKN050 BKN100CB
      TEMPO 2723/2801 VRB20G35KT 6SM TSRA SQ
     FM280200 06008KT P6SM VCTS SCT050 BKN100CB
     FM280400 06005KT P6SM SCT250
     FM281000 10006KT P6SM BKN250=

USA.gov is the U.S. government's official web portal to all federal, state and local government web resources and services.